Terminal Aerodrome Forecast
Issued by NWS

Home | Current Version | Previous Version | Graphics & Text | Print | Product List | Glossary On
Versions: 1 2 3 4 5 6 7 8 9 10 11 12 13 14 15 16
000
FTUS43 KBIS 261100
TAFDIK
TAF
KDIK 261120Z 2612/2712 27010KT P6SM BKN120
     FM261400 28011KT P6SM SCT110
     FM261900 26009KT P6SM SCT100 SCT150
     FM270100 22004KT P6SM SCT140
     FM270400 20005KT P6SM SKC=

USA.gov is the U.S. government's official web portal to all federal, state and local government web resources and services.